createdAt,value
2019-01-29T00:00:51.124Z,91.76
2019-01-29T00:01:51.148Z,91.85
2019-01-29T00:02:51.181Z,91.85
2019-01-29T00:03:51.205Z,91.47
2019-01-29T00:04:51.234Z,91.66
2019-01-29T00:05:51.264Z,91.66
2019-01-29T00:06:51.291Z,91.76
2019-01-29T00:07:51.321Z,91.38
2019-01-29T00:08:51.351Z,91.66
2019-01-29T00:09:51.378Z,91.85
2019-01-29T00:10:51.407Z,91.85
2019-01-29T00:11:51.442Z,91.85
2019-01-29T00:12:51.479Z,91.66
2019-01-29T00:13:51.495Z,91.76
2019-01-29T00:14:51.524Z,91.85
2019-01-29T00:15:51.553Z,91.85
2019-01-29T00:16:51.584Z,92.14
2019-01-29T00:17:51.611Z,91.66
2019-01-29T00:18:51.640Z,91.95
2019-01-29T00:19:51.668Z,91.57
2019-01-29T00:20:51.697Z,92.61
2019-01-29T00:21:51.729Z,92.33
2019-01-29T00:22:51.756Z,92.61
2019-01-29T00:23:51.785Z,92.61
2019-01-29T00:24:51.815Z,92.71
2019-01-29T00:25:51.843Z,92.33
2019-01-29T00:26:51.872Z,92.42
2019-01-29T00:27:51.904Z,92.61
2019-01-29T00:28:51.931Z,92.42
2019-01-29T00:29:51.959Z,92.52
2019-01-29T00:30:51.987Z,91.95
2019-01-29T00:31:52.020Z,91.95
2019-01-29T00:32:52.046Z,91.85
2019-01-29T00:33:52.076Z,92.04
2019-01-29T00:34:52.109Z,92.04
2019-01-29T00:35:52.137Z,92.04
2019-01-29T00:36:52.168Z,91.66
2019-01-29T00:37:52.192Z,91.99
2019-01-29T00:38:52.220Z,91.85
2019-01-29T00:39:52.251Z,91.99
2019-01-29T00:40:52.277Z,91.85
2019-01-29T00:41:52.307Z,91.95
2019-01-29T00:42:52.335Z,91.95
2019-01-29T00:43:52.365Z,91.95
2019-01-29T00:44:52.414Z,92.52
2019-01-29T00:45:52.424Z,92.14
2019-01-29T00:46:52.451Z,92.42
2019-01-29T00:47:52.481Z,92.47
2019-01-29T00:48:52.513Z,91.57
2019-01-29T00:49:52.538Z,92.33
2019-01-29T00:50:52.578Z,92.42
2019-01-29T00:51:52.597Z,92.04
2019-01-29T00:52:52.626Z,92.33
2019-01-29T00:53:52.655Z,92.42
2019-01-29T00:54:52.684Z,92.42
2019-01-29T00:55:52.720Z,92.66
2019-01-29T00:56:52.786Z,92.42
2019-01-29T00:57:52.782Z,92.42
2019-01-29T00:58:52.800Z,92.42
2019-01-29T00:59:52.828Z,92.42
2019-01-29T01:00:52.857Z,92.42
2019-01-29T01:01:52.897Z,92.71
2019-01-29T01:02:52.919Z,92.61
2019-01-29T01:03:52.947Z,92.61
2019-01-29T01:04:52.979Z,91.95
2019-01-29T01:05:53.002Z,91.95
2019-01-29T01:06:53.031Z,91.95
2019-01-29T01:07:53.061Z,91.95
2019-01-29T01:08:53.091Z,92.04
2019-01-29T01:09:57.383Z,91.85
2019-01-29T01:10:53.152Z,92.04
2019-01-29T01:11:53.175Z,92.42
2019-01-29T01:12:53.205Z,92.71
2019-01-29T01:13:53.233Z,92.61
2019-01-29T01:14:53.261Z,91.57
2019-01-29T01:15:53.294Z,92.04
2019-01-29T01:16:53.376Z,91.85
2019-01-29T01:17:53.363Z,91.85
2019-01-29T01:18:53.380Z,92.04
2019-01-29T01:19:53.406Z,91.85
2019-01-29T01:20:53.435Z,91.76
2019-01-29T01:21:53.465Z,91.95
2019-01-29T01:22:53.502Z,91.66
2019-01-29T01:23:53.523Z,91.66
2019-01-29T01:24:53.551Z,92.14
2019-01-29T01:25:53.580Z,92.14
2019-01-29T01:26:53.608Z,91.85
2019-01-29T01:27:53.638Z,91.95
2019-01-29T01:28:53.669Z,91.38
2019-01-29T01:29:53.697Z,91.76
2019-01-29T01:30:53.723Z,91.76
2019-01-29T01:31:53.756Z,91.85
2019-01-29T01:32:53.780Z,91.57
2019-01-29T01:33:53.810Z,91.85
2019-01-29T01:34:53.847Z,91.76
2019-01-29T01:35:53.866Z,91.95
2019-01-29T01:36:53.908Z,91.76
2019-01-29T01:37:53.926Z,91.95
2019-01-29T01:38:53.953Z,91.47
2019-01-29T01:39:53.986Z,91.47
2019-01-29T01:40:54.012Z,91.47
2019-01-29T01:41:54.045Z,91.47
2019-01-29T01:42:54.070Z,91.95
2019-01-29T01:43:54.098Z,91.66
2019-01-29T01:44:54.125Z,91.57
2019-01-29T01:45:54.155Z,91.47
2019-01-29T01:46:54.185Z,91.28
2019-01-29T01:47:54.211Z,91.19
2019-01-29T01:48:54.243Z,91.00
2019-01-29T01:49:54.271Z,91.38
2019-01-29T01:50:54.298Z,90.91
2019-01-29T01:51:54.328Z,90.81
2019-01-29T01:52:59.138Z,91.09
2019-01-29T01:53:54.385Z,91.19
2019-01-29T01:54:54.414Z,91.00
2019-01-29T01:55:54.450Z,90.62
2019-01-29T01:56:54.471Z,90.81
2019-01-29T01:57:54.515Z,90.91
2019-01-29T01:58:54.528Z,91.09
2019-01-29T01:59:54.557Z,91.19
2019-01-29T02:00:54.592Z,91.09
2019-01-29T02:01:54.615Z,90.81
2019-01-29T02:02:54.643Z,91.09
2019-01-29T02:03:54.673Z,90.91
2019-01-29T02:04:54.723Z,90.91
2019-01-29T02:05:54.731Z,90.72
2019-01-29T02:06:54.757Z,90.91
2019-01-29T02:07:54.785Z,90.62
2019-01-29T02:08:54.816Z,91.00
2019-01-29T02:09:54.847Z,91.66
2019-01-29T02:10:54.872Z,91.57
2019-01-29T02:11:54.904Z,91.95
2019-01-29T02:12:54.931Z,92.04
2019-01-29T02:13:54.960Z,91.28
2019-01-29T02:14:54.994Z,90.72
2019-01-29T02:15:55.017Z,90.72
2019-01-29T02:16:55.049Z,90.62
2019-01-29T02:17:55.073Z,90.91
2019-01-29T02:18:55.102Z,90.72
2019-01-29T02:19:55.132Z,90.53
2019-01-29T02:20:55.158Z,90.72
2019-01-29T02:21:55.188Z,91.09
2019-01-29T02:22:55.216Z,90.91
2019-01-29T02:23:55.246Z,90.81
2019-01-29T02:24:55.273Z,90.62
2019-01-29T02:25:55.304Z,90.43
2019-01-29T02:26:55.331Z,90.72
2019-01-29T02:27:55.362Z,90.53
2019-01-29T02:28:55.389Z,90.15
2019-01-29T02:29:55.418Z,90.05
2019-01-29T02:30:55.445Z,90.15
2019-01-29T02:31:55.475Z,90.43
2019-01-29T02:32:55.503Z,90.34
2019-01-29T02:33:55.537Z,90.43
2019-01-29T02:34:55.560Z,90.43
2019-01-29T02:35:55.588Z,90.72
2019-01-29T02:36:55.620Z,90.24
2019-01-29T02:37:55.648Z,89.58
2019-01-29T02:38:55.678Z,89.48
2019-01-29T02:39:55.704Z,89.86
2019-01-29T02:40:55.733Z,89.58
2019-01-29T02:41:55.765Z,89.39
2019-01-29T02:42:55.787Z,89.96
2019-01-29T02:43:55.823Z,89.58
2019-01-29T02:44:55.852Z,89.48
2019-01-29T02:46:02.330Z,89.29
2019-01-29T02:47:57.889Z,89.11
2019-01-29T02:48:57.913Z,89.11
2019-01-29T02:50:59.924Z,89.11
2019-01-29T02:51:59.952Z,89.58
2019-01-29T02:54:01.967Z,89.72
2019-01-29T02:55:01.990Z,88.87
2019-01-29T02:56:53.940Z,88.82
2019-01-29T02:57:53.968Z,88.68
2019-01-29T02:59:55.981Z,88.78
2019-01-29T03:00:56.004Z,89.77
2019-01-29T03:02:58.015Z,89.06
2019-01-29T03:03:58.035Z,89.91
2019-01-29T03:06:00.042Z,89.53
2019-01-29T03:07:00.073Z,89.63
2019-01-29T03:09:02.100Z,90.10
2019-01-29T03:10:02.121Z,90.01
2019-01-29T03:12:04.127Z,90.48
2019-01-29T03:13:04.156Z,90.67
2019-01-29T03:15:06.163Z,90.67
2019-01-29T03:16:06.182Z,90.67
2019-01-29T03:18:08.197Z,90.77
2019-01-29T03:19:08.219Z,90.95
2019-01-29T03:21:10.229Z,90.10
2019-01-29T03:22:10.262Z,90.29
2019-01-29T03:24:12.267Z,90.10
2019-01-29T03:25:12.291Z,90.58
2019-01-29T03:27:14.310Z,90.39
2019-01-29T03:28:14.330Z,90.48
2019-01-29T03:30:16.353Z,89.72
2019-01-29T03:31:16.363Z,90.01
2019-01-29T03:33:18.387Z,90.48
2019-01-29T03:34:18.410Z,90.58
2019-01-29T03:36:10.344Z,90.86
2019-01-29T03:37:10.367Z,91.05
2019-01-29T03:39:12.374Z,90.95
2019-01-29T03:40:12.401Z,91.05
2019-01-29T03:42:14.403Z,90.29
2019-01-29T03:43:14.429Z,90.77
2019-01-29T03:45:16.434Z,90.86
2019-01-29T03:46:16.458Z,90.77
2019-01-29T03:48:18.465Z,90.95
2019-01-29T03:49:18.491Z,90.67
2019-01-29T03:51:20.503Z,90.86
2019-01-29T03:52:20.526Z,91.05
2019-01-29T03:54:22.552Z,91.05
2019-01-29T03:55:22.557Z,90.95
2019-01-29T03:57:24.568Z,90.48
2019-01-29T03:58:24.592Z,90.10
2019-01-29T04:00:26.619Z,90.67
2019-01-29T04:01:26.623Z,90.20
2019-01-29T04:03:28.635Z,90.58
2019-01-29T04:04:28.657Z,90.58
2019-01-29T04:06:20.595Z,89.82
2019-01-29T04:07:20.617Z,89.53
2019-01-29T04:09:22.662Z,89.91
2019-01-29T04:10:22.672Z,89.91
2019-01-29T04:12:24.678Z,89.96
2019-01-29T04:13:24.700Z,90.44
2019-01-29T04:15:26.709Z,90.44
2019-01-29T04:16:26.732Z,90.72
2019-01-29T04:18:28.738Z,90.25
2019-01-29T04:19:28.763Z,90.34
2019-01-29T04:21:30.773Z,89.87
2019-01-29T04:22:30.797Z,90.06
2019-01-29T04:24:32.827Z,89.49
2019-01-29T04:25:32.832Z,89.77
2019-01-29T04:27:34.843Z,90.34
2019-01-29T04:28:34.868Z,89.96
2019-01-29T04:30:36.893Z,89.49
2019-01-29T04:31:36.915Z,89.77
2019-01-29T04:33:29.034Z,89.49
2019-01-29T04:34:29.060Z,89.68
2019-01-29T04:36:20.997Z,89.39
2019-01-29T04:37:21.018Z,90.06
2019-01-29T04:39:23.064Z,89.96
2019-01-29T04:40:23.071Z,89.96
2019-01-29T04:42:25.081Z,89.77
2019-01-29T04:43:25.102Z,89.77
2019-01-29T04:45:27.128Z,89.58
2019-01-29T04:46:27.133Z,89.58
2019-01-29T04:48:29.152Z,89.20
2019-01-29T04:49:29.164Z,89.01
2019-01-29T04:51:31.168Z,88.82
2019-01-29T04:52:31.192Z,88.82
2019-01-29T04:54:33.232Z,88.45
2019-01-29T04:55:33.241Z,88.64
2019-01-29T04:57:35.245Z,88.64
2019-01-29T04:58:35.267Z,88.64
2019-01-29T05:00:37.297Z,88.82
2019-01-29T05:01:37.302Z,88.92
2019-01-29T05:03:39.322Z,88.64
2019-01-29T05:04:39.327Z,88.45
2019-01-29T05:06:31.267Z,89.20
2019-01-29T05:07:31.288Z,88.45
2019-01-29T05:09:33.315Z,87.88
2019-01-29T05:10:33.320Z,88.73
2019-01-29T05:12:35.327Z,88.45
2019-01-29T05:13:35.351Z,88.64
2019-01-29T05:15:37.475Z,88.26
2019-01-29T05:16:37.386Z,88.07
2019-01-29T05:18:39.395Z,87.31
2019-01-29T05:19:39.422Z,87.40
2019-01-29T05:21:41.481Z,87.69
2019-01-29T05:22:41.448Z,87.78
2019-01-29T05:24:43.456Z,87.69
2019-01-29T05:25:43.480Z,87.40
2019-01-29T05:27:45.507Z,87.40
2019-01-29T05:28:45.515Z,87.69
2019-01-29T05:30:47.522Z,87.40
2019-01-29T05:31:47.546Z,87.78
2019-01-29T05:33:49.555Z,87.50
2019-01-29T05:34:49.582Z,87.50
2019-01-29T05:36:41.530Z,87.69
2019-01-29T05:37:41.537Z,88.26
2019-01-29T05:39:43.559Z,87.21
2019-01-29T05:40:43.574Z,87.17
2019-01-29T05:42:45.616Z,87.69
2019-01-29T05:43:45.635Z,87.55
2019-01-29T05:45:47.640Z,87.46
2019-01-29T05:46:47.664Z,87.65
2019-01-29T05:48:49.713Z,87.55
2019-01-29T05:49:49.740Z,87.55
2019-01-29T05:51:51.747Z,86.89
2019-01-29T05:52:51.768Z,87.65
2019-01-29T05:54:53.800Z,86.41
2019-01-29T05:55:53.801Z,86.60
2019-01-29T05:57:56.031Z,86.51
2019-01-29T05:58:56.054Z,86.60
2019-01-29T06:00:58.229Z,86.32
2019-01-29T06:01:58.235Z,86.51
2019-01-29T06:03:50.533Z,86.51
2019-01-29T06:04:50.560Z,86.51
2019-01-29T06:06:42.679Z,86.51
2019-01-29T06:07:42.704Z,86.51
2019-01-29T06:09:45.797Z,87.08
2019-01-29T06:10:45.800Z,87.17
2019-01-29T06:12:48.891Z,87.17
2019-01-29T06:13:48.915Z,86.98
2019-01-29T06:15:41.102Z,87.27
2019-01-29T06:16:41.109Z,87.55
2019-01-29T06:18:43.138Z,87.36
2019-01-29T06:19:43.164Z,86.98
2019-01-29T06:21:45.204Z,86.79
2019-01-29T06:22:45.214Z,87.23
2019-01-29T06:24:47.299Z,87.46
2019-01-29T06:25:47.324Z,87.60
2019-01-29T06:27:49.417Z,86.94
2019-01-29T06:28:49.439Z,87.32
2019-01-29T06:30:51.536Z,86.85
2019-01-29T06:31:51.547Z,86.75
2019-01-29T06:33:43.681Z,87.51
2019-01-29T06:34:43.696Z,87.13
2019-01-29T06:36:35.631Z,87.51
2019-01-29T06:37:35.653Z,88.17
2019-01-29T06:39:37.689Z,87.23
2019-01-29T06:40:37.679Z,87.23
2019-01-29T06:42:39.769Z,87.23
2019-01-29T06:43:39.705Z,87.51
2019-01-29T06:44:39.730Z,87.32
2019-01-29T06:45:39.758Z,87.70
2019-01-29T06:46:39.788Z,87.51
2019-01-29T06:47:39.813Z,87.70
2019-01-29T06:48:39.841Z,87.88
2019-01-29T06:49:39.871Z,87.88
2019-01-29T06:50:39.894Z,87.70
2019-01-29T06:51:39.924Z,87.88
2019-01-29T06:52:39.963Z,87.79
2019-01-29T06:53:39.978Z,87.70
2019-01-29T06:54:40.003Z,88.07
2019-01-29T06:55:40.031Z,87.88
2019-01-29T06:56:40.061Z,88.07
2019-01-29T06:57:40.086Z,87.88
2019-01-29T06:58:40.113Z,88.74
2019-01-29T06:59:40.141Z,87.88
2019-01-29T07:00:40.169Z,87.79
2019-01-29T07:01:40.192Z,88.45
2019-01-29T07:02:40.221Z,88.36
2019-01-29T07:03:40.250Z,88.17
2019-01-29T07:04:40.275Z,88.17
2019-01-29T07:05:40.303Z,88.55
2019-01-29T07:06:40.331Z,88.74
2019-01-29T07:07:40.367Z,88.55
2019-01-29T07:08:40.384Z,88.55
2019-01-29T07:09:40.410Z,88.64
2019-01-29T07:10:40.438Z,88.55
2019-01-29T07:11:40.475Z,88.26
2019-01-29T07:12:40.492Z,88.36
2019-01-29T07:13:40.518Z,88.45
2019-01-29T07:14:40.547Z,88.45
2019-01-29T07:15:40.575Z,88.55
2019-01-29T07:16:40.601Z,88.55
2019-01-29T07:17:40.627Z,88.55
2019-01-29T07:18:40.654Z,87.98
2019-01-29T07:19:40.682Z,88.17
2019-01-29T07:20:40.709Z,87.79
2019-01-29T07:21:42.463Z,87.51
2019-01-29T07:22:40.765Z,87.60
2019-01-29T07:23:40.796Z,87.70
2019-01-29T07:24:43.009Z,87.32
2019-01-29T07:25:40.844Z,87.51
2019-01-29T07:26:40.875Z,87.98
2019-01-29T07:27:40.938Z,87.88
2019-01-29T07:28:40.927Z,88.55
2019-01-29T07:29:40.952Z,88.36
2019-01-29T07:30:40.981Z,88.26
2019-01-29T07:31:41.009Z,88.36
2019-01-29T07:32:41.037Z,88.17
2019-01-29T07:33:42.043Z,88.55
2019-01-29T07:34:41.090Z,88.74
2019-01-29T07:35:41.117Z,88.93
2019-01-29T07:36:41.144Z,88.45
2019-01-29T07:37:41.172Z,88.74
2019-01-29T07:38:41.201Z,88.93
2019-01-29T07:39:41.226Z,88.93
2019-01-29T07:40:41.254Z,88.93
2019-01-29T07:41:41.281Z,88.36
2019-01-29T07:42:41.309Z,88.97
2019-01-29T07:43:41.337Z,88.55
2019-01-29T07:44:41.368Z,88.97
2019-01-29T07:45:41.390Z,89.16
2019-01-29T07:46:41.435Z,89.16
2019-01-29T07:47:41.445Z,89.16
2019-01-29T07:48:41.473Z,89.16
2019-01-29T07:49:41.502Z,88.78
2019-01-29T07:50:41.527Z,88.97
2019-01-29T07:51:41.554Z,88.68
2019-01-29T07:52:41.583Z,88.78
2019-01-29T07:53:41.609Z,89.16
2019-01-29T07:54:41.645Z,89.16
2019-01-29T07:55:41.665Z,88.68
2019-01-29T07:56:41.692Z,88.97
2019-01-29T07:57:41.717Z,89.25
2019-01-29T07:58:41.747Z,89.82
2019-01-29T07:59:41.775Z,88.97
2019-01-29T08:00:42.331Z,88.40
2019-01-29T08:01:41.830Z,88.31
2019-01-29T08:02:41.856Z,88.59
2019-01-29T08:03:41.884Z,88.59
2019-01-29T08:04:41.910Z,88.49
2019-01-29T08:05:41.938Z,88.97
2019-01-29T08:06:41.966Z,88.78
2019-01-29T08:07:42.002Z,88.97
2019-01-29T08:08:42.020Z,88.68
2019-01-29T08:09:42.055Z,89.06
2019-01-29T08:10:42.080Z,88.59
2019-01-29T08:11:42.103Z,88.59
2019-01-29T08:12:42.130Z,88.87
2019-01-29T08:13:42.158Z,89.35
2019-01-29T08:14:42.185Z,89.63
2019-01-29T08:15:42.217Z,89.92
2019-01-29T08:16:42.241Z,89.92
2019-01-29T08:17:42.271Z,89.92
2019-01-29T08:18:42.295Z,89.35
2019-01-29T08:19:42.324Z,90.01
2019-01-29T08:20:42.354Z,90.01
2019-01-29T08:21:42.378Z,90.11
2019-01-29T08:22:42.405Z,91.72
2019-01-29T08:23:42.466Z,91.91
2019-01-29T08:24:42.460Z,91.24
2019-01-29T08:25:47.568Z,90.25
2019-01-29T08:26:42.553Z,90.81
2019-01-29T08:27:42.544Z,90.25
2019-01-29T08:28:42.573Z,90.34
2019-01-29T08:29:42.600Z,90.34
2019-01-29T08:30:42.631Z,90.06
2019-01-29T08:31:42.657Z,89.96
2019-01-29T08:32:42.680Z,89.11
2019-01-29T08:33:42.713Z,89.11
2019-01-29T08:34:42.740Z,88.64
2019-01-29T08:35:42.765Z,88.82
2019-01-29T08:36:42.791Z,88.92
2019-01-29T08:37:42.820Z,89.20
2019-01-29T08:38:42.848Z,88.92
2019-01-29T08:39:42.876Z,88.82
2019-01-29T08:40:42.903Z,89.49
2019-01-29T08:41:42.932Z,89.30
2019-01-29T08:42:42.962Z,89.30
2019-01-29T08:43:42.987Z,89.68
2019-01-29T08:44:43.014Z,89.58
2019-01-29T08:45:50.205Z,89.49
2019-01-29T08:47:47.536Z,89.96
2019-01-29T08:48:47.092Z,89.96
2019-01-29T08:50:51.114Z,89.87
2019-01-29T08:51:51.136Z,89.49
2019-01-29T08:53:55.185Z,89.58
2019-01-29T08:54:55.187Z,89.68
2019-01-29T08:56:48.131Z,89.39
2019-01-29T08:57:48.156Z,89.68
2019-01-29T08:59:52.192Z,88.73
2019-01-29T09:00:52.201Z,89.11
2019-01-29T09:02:56.235Z,89.68
2019-01-29T09:03:56.256Z,89.68
2019-01-29T09:06:00.279Z,88.92
2019-01-29T09:07:00.303Z,88.92
2019-01-29T09:09:04.332Z,89.68
2019-01-29T09:10:04.350Z,89.49
2019-01-29T09:12:08.376Z,88.82
2019-01-29T09:13:08.395Z,89.11
2019-01-29T09:15:12.456Z,88.92
2019-01-29T09:16:12.446Z,89.01
2019-01-29T09:18:16.497Z,88.73
2019-01-29T09:19:16.491Z,88.64
2019-01-29T09:21:20.533Z,89.01
2019-01-29T09:22:20.552Z,88.54
2019-01-29T09:24:24.575Z,88.82
2019-01-29T09:25:24.592Z,89.01
2019-01-29T09:27:28.617Z,88.40
2019-01-29T09:28:28.638Z,88.49
2019-01-29T09:30:32.672Z,88.30
2019-01-29T09:31:32.701Z,88.54
2019-01-29T09:33:36.725Z,88.64
2019-01-29T09:34:36.746Z,88.82
2019-01-29T09:36:29.689Z,88.45
2019-01-29T09:37:29.746Z,89.20
2019-01-29T09:39:33.738Z,88.64
2019-01-29T09:40:33.758Z,88.26
2019-01-29T09:42:37.780Z,88.82
2019-01-29T09:43:37.804Z,88.64
2019-01-29T09:45:41.827Z,88.45
2019-01-29T09:46:41.852Z,88.82
2019-01-29T09:48:45.876Z,90.06
2019-01-29T09:49:45.900Z,89.01
2019-01-29T09:51:49.935Z,89.58
2019-01-29T09:52:49.960Z,89.30
2019-01-29T09:54:53.983Z,89.49
2019-01-29T09:55:54.007Z,89.77
2019-01-29T09:57:58.032Z,89.87
2019-01-29T09:58:58.052Z,90.15
2019-01-29T10:01:02.121Z,89.96
2019-01-29T10:02:02.102Z,89.77
2019-01-29T10:03:02.138Z,89.87
2019-01-29T10:04:02.159Z,89.49
2019-01-29T10:05:02.187Z,89.96
2019-01-29T10:06:02.217Z,89.87
2019-01-29T10:07:02.275Z,89.68
2019-01-29T10:08:02.277Z,89.49
2019-01-29T10:09:02.295Z,89.68
2019-01-29T10:10:02.322Z,89.58
2019-01-29T10:11:02.351Z,89.87
2019-01-29T10:12:02.380Z,89.96
2019-01-29T10:13:02.408Z,89.96
2019-01-29T10:14:02.435Z,89.96
2019-01-29T10:15:02.468Z,90.25
2019-01-29T10:16:02.492Z,89.63
2019-01-29T10:17:02.520Z,89.72
2019-01-29T10:18:02.550Z,89.91
2019-01-29T10:19:02.577Z,89.91
2019-01-29T10:20:03.314Z,88.87
2019-01-29T10:21:02.638Z,89.06
2019-01-29T10:22:02.666Z,88.78
2019-01-29T10:23:02.687Z,88.82
2019-01-29T10:24:02.716Z,88.73
2019-01-29T10:25:02.746Z,89.20
2019-01-29T10:26:02.772Z,90.01
2019-01-29T10:27:02.801Z,89.34
2019-01-29T10:28:02.851Z,89.01
2019-01-29T10:29:02.855Z,89.06
2019-01-29T10:30:02.884Z,88.78
2019-01-29T10:31:02.914Z,88.87
2019-01-29T10:32:02.946Z,88.87
2019-01-29T10:33:02.969Z,88.45
2019-01-29T10:34:02.997Z,88.68
2019-01-29T10:35:03.029Z,88.49
2019-01-29T10:36:03.056Z,88.68
2019-01-29T10:37:03.082Z,88.87
2019-01-29T10:38:03.110Z,88.78
2019-01-29T10:39:03.137Z,89.34
2019-01-29T10:40:03.166Z,88.78
2019-01-29T10:41:03.195Z,88.68
2019-01-29T10:42:03.223Z,88.87
2019-01-29T10:43:03.255Z,88.87
2019-01-29T10:44:03.278Z,88.87
2019-01-29T10:45:03.307Z,89.15
2019-01-29T10:46:03.335Z,88.96
2019-01-29T10:47:03.362Z,89.06
2019-01-29T10:48:03.392Z,88.96
2019-01-29T10:49:03.422Z,88.87
2019-01-29T10:50:03.447Z,88.78
2019-01-29T10:51:03.477Z,89.15
2019-01-29T10:52:03.503Z,89.15
2019-01-29T10:53:03.532Z,88.87
2019-01-29T10:54:03.560Z,89.44
2019-01-29T10:55:03.600Z,88.68
2019-01-29T10:56:03.631Z,88.59
2019-01-29T10:57:03.646Z,89.06
2019-01-29T10:58:03.718Z,88.49
2019-01-29T10:59:03.701Z,88.87
2019-01-29T11:00:03.731Z,88.49
2019-01-29T11:01:03.757Z,88.59
2019-01-29T11:02:03.785Z,89.15
2019-01-29T11:03:03.813Z,88.87
2019-01-29T11:04:03.844Z,88.78
2019-01-29T11:05:03.871Z,88.68
2019-01-29T11:06:03.899Z,88.87
2019-01-29T11:07:03.927Z,88.78
2019-01-29T11:08:03.956Z,88.68
2019-01-29T11:09:03.984Z,88.49
2019-01-29T11:10:04.012Z,88.87
2019-01-29T11:11:04.040Z,88.02
2019-01-29T11:12:04.069Z,88.11
2019-01-29T11:13:04.096Z,87.83
2019-01-29T11:14:04.126Z,87.54
2019-01-29T11:15:04.165Z,88.11
2019-01-29T11:16:04.184Z,88.11
2019-01-29T11:17:04.213Z,88.21
2019-01-29T11:18:04.237Z,88.11
2019-01-29T11:19:04.266Z,87.92
2019-01-29T11:20:04.299Z,88.02
2019-01-29T11:21:04.323Z,88.40
2019-01-29T11:22:04.352Z,89.06
2019-01-29T11:23:04.381Z,89.15
2019-01-29T11:24:04.413Z,88.96
2019-01-29T11:25:04.437Z,88.87
2019-01-29T11:26:04.468Z,88.68
2019-01-29T11:27:04.495Z,89.06
2019-01-29T11:28:04.523Z,89.06
2019-01-29T11:29:04.550Z,88.68
2019-01-29T11:30:04.581Z,88.49
2019-01-29T11:31:04.610Z,88.40
2019-01-29T11:32:04.636Z,88.78
2019-01-29T11:33:04.670Z,89.06
2019-01-29T11:34:04.698Z,88.96
2019-01-29T11:35:04.721Z,88.96
2019-01-29T11:36:04.867Z,89.06
2019-01-29T11:37:04.780Z,88.96
2019-01-29T11:38:04.806Z,88.78
2019-01-29T11:39:04.837Z,88.49
2019-01-29T11:40:04.863Z,88.02
2019-01-29T11:41:04.893Z,88.16
2019-01-29T11:42:04.920Z,88.59
2019-01-29T11:43:04.952Z,88.73
2019-01-29T11:44:04.976Z,88.54
2019-01-29T11:45:05.004Z,87.73
2019-01-29T11:46:05.035Z,87.83
2019-01-29T11:47:06.563Z,88.16
2019-01-29T11:48:05.093Z,87.59
2019-01-29T11:49:05.118Z,87.77
2019-01-29T11:50:05.161Z,87.77
2019-01-29T11:51:05.191Z,87.49
2019-01-29T11:52:05.204Z,88.16
2019-01-29T11:53:05.244Z,87.68
2019-01-29T11:54:05.264Z,87.68
2019-01-29T11:55:05.291Z,88.02
2019-01-29T11:56:05.321Z,87.97
2019-01-29T11:57:05.347Z,88.06
2019-01-29T11:58:05.375Z,88.06
2019-01-29T11:59:05.404Z,88.16
2019-01-29T12:00:05.440Z,87.97
2019-01-29T12:01:05.463Z,88.16
2019-01-29T12:02:05.488Z,87.49
2019-01-29T12:03:05.517Z,86.93
2019-01-29T12:04:05.546Z,87.12
2019-01-29T12:05:05.575Z,87.49
2019-01-29T12:06:05.603Z,87.59
2019-01-29T12:07:05.640Z,87.40
2019-01-29T12:08:05.660Z,88.25
2019-01-29T12:09:05.689Z,86.93
2019-01-29T12:10:05.718Z,87.02
2019-01-29T12:11:05.747Z,87.68
2019-01-29T12:12:05.777Z,87.02
2019-01-29T12:13:05.803Z,87.30
2019-01-29T12:14:05.835Z,87.02
2019-01-29T12:15:05.864Z,86.74
2019-01-29T12:16:05.889Z,86.26
2019-01-29T12:17:05.918Z,86.16
2019-01-29T12:18:05.946Z,85.69
2019-01-29T12:19:05.975Z,85.88
2019-01-29T12:20:06.009Z,86.07
2019-01-29T12:21:06.034Z,85.69
2019-01-29T12:22:06.065Z,85.31
2019-01-29T12:23:06.191Z,85.22
2019-01-29T12:24:06.119Z,85.03
2019-01-29T12:25:06.176Z,84.74
2019-01-29T12:26:12.982Z,84.46
2019-01-29T12:27:06.204Z,84.46
2019-01-29T12:28:06.236Z,84.08
2019-01-29T12:29:06.261Z,85.22
2019-01-29T12:30:06.291Z,84.36
2019-01-29T12:31:06.320Z,83.08
2019-01-29T12:32:06.349Z,82.51
2019-01-29T12:33:06.377Z,81.75
2019-01-29T12:34:06.405Z,81.56
2019-01-29T12:35:06.434Z,81.60
2019-01-29T12:36:06.465Z,80.37
2019-01-29T12:37:06.492Z,79.04
2019-01-29T12:38:06.520Z,79.55
2019-01-29T12:39:06.549Z,77.47
2019-01-29T12:40:06.582Z,76.08
2019-01-29T12:41:06.607Z,75.51
2019-01-29T12:42:06.636Z,75.42
2019-01-29T12:43:06.669Z,75.23
2019-01-29T12:44:06.702Z,74.75
2019-01-29T12:45:06.726Z,74.18
2019-01-29T12:46:06.757Z,73.23
2019-01-29T12:47:06.786Z,73.23
2019-01-29T12:48:06.815Z,72.56
2019-01-29T12:49:06.846Z,72.66
2019-01-29T12:50:06.871Z,73.48
2019-01-29T12:51:06.903Z,74.62
2019-01-29T12:52:06.933Z,75.09
2019-01-29T12:53:06.963Z,75.19
2019-01-29T12:54:06.991Z,75.00
2019-01-29T12:55:07.020Z,74.81
2019-01-29T12:56:07.053Z,74.62
2019-01-29T12:57:07.084Z,74.15
2019-01-29T12:58:07.112Z,75.28
2019-01-29T12:59:07.139Z,76.23
2019-01-29T13:00:07.169Z,76.61
2019-01-29T13:01:07.200Z,76.42
2019-01-29T13:02:07.230Z,76.23
2019-01-29T13:03:07.259Z,75.23
2019-01-29T13:04:07.287Z,74.75
2019-01-29T13:05:07.337Z,73.61
2019-01-29T13:06:07.372Z,73.61
2019-01-29T13:07:07.378Z,73.48
2019-01-29T13:08:07.406Z,74.08
2019-01-29T13:09:07.436Z,74.47
2019-01-29T13:10:07.465Z,74.85
2019-01-29T13:11:07.497Z,75.74
2019-01-29T13:12:07.523Z,73.88
2019-01-29T13:13:07.554Z,70.77
2019-01-29T13:14:07.586Z,67.29
2019-01-29T13:15:07.615Z,65.13
2019-01-29T13:16:07.645Z,63.51
2019-01-29T13:17:07.673Z,63.60
2019-01-29T13:18:07.705Z,63.42
2019-01-29T13:19:07.735Z,62.43
2019-01-29T13:20:07.770Z,63.76
2019-01-29T13:21:07.795Z,64.05
2019-01-29T13:22:07.827Z,65.06
2019-01-29T13:23:07.856Z,64.97
2019-01-29T13:24:07.888Z,64.78
2019-01-29T13:25:07.918Z,65.13
2019-01-29T13:26:07.951Z,65.80
2019-01-29T13:27:07.980Z,67.66
2019-01-29T13:28:08.016Z,68.13
2019-01-29T13:29:08.041Z,69.15
2019-01-29T13:30:08.072Z,70.10
2019-01-29T13:31:08.101Z,70.86
2019-01-29T13:32:08.136Z,71.23
2019-01-29T13:33:08.161Z,71.62
2019-01-29T13:34:08.190Z,71.71
2019-01-29T13:35:08.220Z,72.34
2019-01-29T13:36:08.252Z,73.00
2019-01-29T13:37:08.280Z,73.76
2019-01-29T13:38:08.312Z,74.90
2019-01-29T13:39:08.341Z,75.09
2019-01-29T13:40:08.372Z,74.81
2019-01-29T13:41:08.402Z,75.19
2019-01-29T13:42:08.435Z,75.28
2019-01-29T13:43:08.461Z,75.34
2019-01-29T13:44:08.492Z,75.53
2019-01-29T13:45:08.532Z,76.01
2019-01-29T13:46:08.549Z,76.57
2019-01-29T13:47:08.582Z,76.42
2019-01-29T13:48:08.609Z,76.20
2019-01-29T13:49:08.638Z,75.91
2019-01-29T13:50:08.669Z,75.81
2019-01-29T13:51:08.706Z,75.72
2019-01-29T13:52:08.737Z,76.42
2019-01-29T13:53:08.757Z,75.91
2019-01-29T13:54:08.791Z,76.10
2019-01-29T13:55:08.817Z,76.10
2019-01-29T13:56:08.846Z,76.20
2019-01-29T13:57:08.879Z,76.10
2019-01-29T13:58:08.905Z,76.01
2019-01-29T13:59:08.939Z,76.10
2019-01-29T14:00:08.968Z,76.48
2019-01-29T14:01:08.995Z,76.10
2019-01-29T14:02:09.029Z,76.76
2019-01-29T14:03:09.053Z,77.05
2019-01-29T14:04:09.083Z,77.67
2019-01-29T14:05:09.114Z,77.58
2019-01-29T14:06:09.141Z,78.43
2019-01-29T14:07:09.173Z,78.53
2019-01-29T14:08:09.199Z,78.62
2019-01-29T14:09:09.235Z,78.81
2019-01-29T14:10:09.258Z,79.28
2019-01-29T14:11:09.289Z,78.81
2019-01-29T14:12:09.316Z,78.85
2019-01-29T14:13:09.345Z,79.52
2019-01-29T14:14:09.376Z,78.75
2019-01-29T14:15:09.412Z,78.47
2019-01-29T14:16:09.434Z,78.38
2019-01-29T14:17:09.463Z,78.19
2019-01-29T14:18:09.491Z,77.43
2019-01-29T14:19:09.520Z,78.00
2019-01-29T14:20:09.554Z,77.71
2019-01-29T14:21:09.580Z,77.24
2019-01-29T14:22:09.607Z,77.33
2019-01-29T14:23:09.639Z,77.81
2019-01-29T14:24:09.668Z,77.48
2019-01-29T14:25:09.697Z,78.15
2019-01-29T14:26:09.725Z,77.58
2019-01-29T14:27:09.756Z,78.24
2019-01-29T14:28:09.787Z,78.43
2019-01-29T14:29:09.814Z,78.53
2019-01-29T14:30:09.854Z,78.72
2019-01-29T14:31:09.873Z,79.00
2019-01-29T14:32:09.913Z,78.72
2019-01-29T14:33:09.931Z,79.10
2019-01-29T14:34:09.963Z,78.43
2019-01-29T14:35:09.989Z,79.00
2019-01-29T14:36:16.557Z,78.72
2019-01-29T14:37:10.047Z,79.10
2019-01-29T14:38:10.077Z,79.47
2019-01-29T14:39:10.106Z,79.85